createdAt,value
2018-12-02T05:01:16.552Z,6.94
2018-12-02T05:05:46.360Z,6.86
2018-12-02T05:06:14.387Z,6.82
2018-12-02T05:06:54.121Z,6.99
2018-12-02T05:14:28.796Z,7.18
2018-12-02T05:15:26.789Z,7.21
2018-12-02T05:16:26.766Z,7.16
2018-12-02T05:17:26.747Z,7.21
2018-12-02T05:18:26.727Z,7.09
2018-12-02T05:19:26.712Z,7.12
2018-12-02T05:20:26.705Z,7.11
2018-12-02T05:21:26.690Z,7.01
2018-12-02T05:22:26.695Z,7.16
2018-12-02T05:23:26.668Z,7.21
2018-12-02T05:24:26.656Z,7.07
2018-12-02T05:25:26.644Z,7.07
2018-12-02T05:26:26.637Z,7.15
2018-12-02T05:27:26.646Z,7.07
2018-12-02T05:28:26.616Z,7.11
2018-12-02T05:29:26.599Z,7.09
2018-12-02T05:30:26.588Z,7.12
2018-12-02T05:31:26.578Z,7.07
2018-12-02T05:32:26.578Z,6.94
2018-12-02T05:33:26.563Z,7.09
2018-12-02T05:34:26.544Z,7.08
2018-12-02T05:35:26.532Z,6.97
2018-12-02T05:36:26.523Z,7.01
2018-12-02T05:37:26.521Z,6.96
2018-12-02T05:38:26.502Z,6.96
2018-12-02T05:39:26.507Z,6.97
2018-12-02T05:40:26.475Z,7.04
2018-12-02T05:41:26.464Z,6.91
2018-12-02T05:42:26.466Z,6.97
2018-12-02T05:43:26.446Z,7.00
2018-12-02T05:44:26.429Z,6.99
2018-12-02T05:45:26.418Z,6.96
2018-12-02T05:46:26.406Z,6.97
2018-12-02T05:47:26.407Z,6.90
2018-12-02T05:48:26.384Z,6.86
2018-12-02T05:49:26.384Z,6.89
2018-12-02T05:50:26.361Z,6.75
2018-12-02T05:51:26.366Z,6.83
2018-12-02T05:52:26.359Z,6.86
2018-12-02T05:53:26.328Z,6.82
2018-12-02T05:54:26.317Z,6.78
2018-12-02T05:55:26.303Z,6.78
2018-12-02T05:56:26.293Z,6.65
2018-12-02T05:57:26.296Z,6.68
2018-12-02T05:58:26.267Z,6.71
2018-12-02T05:59:26.257Z,6.76
2018-12-02T06:00:26.247Z,6.63
2018-12-02T06:01:26.257Z,6.69
2018-12-02T06:02:26.239Z,6.75
2018-12-02T06:03:26.214Z,6.78
2018-12-02T06:04:26.208Z,6.65
2018-12-02T06:05:26.188Z,6.72
2018-12-02T06:06:26.178Z,6.72
2018-12-02T06:07:26.183Z,6.72
2018-12-02T06:08:26.155Z,6.75
2018-12-02T06:09:26.144Z,6.72
2018-12-02T06:10:26.133Z,6.73
2018-12-02T06:11:26.129Z,6.73
2018-12-02T06:12:26.121Z,6.63
2018-12-02T06:13:26.099Z,6.61
2018-12-02T06:14:26.087Z,6.58
2018-12-02T06:15:26.076Z,6.65
2018-12-02T06:16:26.065Z,6.71
2018-12-02T06:17:26.108Z,6.72
2018-12-02T06:18:26.041Z,6.71
2018-12-02T06:19:26.030Z,6.75
2018-12-02T06:20:26.019Z,6.68
2018-12-02T06:21:26.007Z,6.73
2018-12-02T06:22:26.008Z,6.73
2018-12-02T06:23:25.989Z,6.68
2018-12-02T06:24:25.978Z,6.71
2018-12-02T06:25:25.977Z,6.82
2018-12-02T06:26:25.959Z,6.81
2018-12-02T06:27:25.955Z,6.82
2018-12-02T06:28:25.929Z,6.82
2018-12-02T06:29:25.917Z,6.83
2018-12-02T06:30:25.907Z,6.91
2018-12-02T06:31:25.898Z,6.94
2018-12-02T06:32:25.907Z,6.89
2018-12-02T06:33:25.872Z,6.76
2018-12-02T06:34:25.869Z,6.78
2018-12-02T06:35:25.850Z,6.82
2018-12-02T06:36:25.842Z,6.83
2018-12-02T06:37:25.845Z,6.89
2018-12-02T06:38:25.815Z,6.79
2018-12-02T06:39:25.804Z,6.78
2018-12-02T06:40:25.792Z,6.79
2018-12-02T06:41:25.781Z,6.81
2018-12-02T06:42:25.806Z,6.87
2018-12-02T06:43:25.759Z,6.72
2018-12-02T06:44:25.748Z,6.81
2018-12-02T06:45:25.736Z,6.82
2018-12-02T06:46:25.728Z,6.83
2018-12-02T06:47:25.720Z,6.73
2018-12-02T06:48:25.725Z,6.82
2018-12-02T06:49:25.693Z,6.83
2018-12-02T06:50:25.689Z,6.86
2018-12-02T06:51:25.669Z,6.93
2018-12-02T06:52:25.657Z,6.89
2018-12-02T06:53:25.662Z,6.93
2018-12-02T06:54:25.634Z,6.99
2018-12-02T06:55:25.623Z,7.00
2018-12-02T06:56:25.613Z,6.99
2018-12-02T06:57:25.603Z,6.96
2018-12-02T06:58:25.606Z,6.97
2018-12-02T06:59:25.583Z,7.00
2018-12-02T07:00:25.570Z,6.96
2018-12-02T07:01:25.556Z,6.91
2018-12-02T07:02:25.545Z,6.96
2018-12-02T07:03:25.548Z,7.00
2018-12-02T07:04:25.522Z,6.94
2018-12-02T07:05:25.515Z,6.96
2018-12-02T07:06:25.500Z,6.96
2018-12-02T07:07:25.488Z,6.96
2018-12-02T07:08:25.493Z,6.99
2018-12-02T07:09:25.461Z,7.01
2018-12-02T07:10:25.455Z,6.96
2018-12-02T07:11:25.443Z,6.96
2018-12-02T07:12:25.429Z,6.96
2018-12-02T07:13:25.434Z,6.97
2018-12-02T07:14:25.406Z,6.99
2018-12-02T07:15:25.395Z,7.07
2018-12-02T07:16:25.382Z,6.97
2018-12-02T07:17:25.372Z,7.00
2018-12-02T07:18:25.372Z,7.05
2018-12-02T07:19:25.349Z,7.01
2018-12-02T07:20:25.339Z,7.08
2018-12-02T07:21:25.337Z,7.00
2018-12-02T07:22:25.315Z,6.97
2018-12-02T07:23:25.316Z,7.18
2018-12-02T07:24:25.289Z,6.93
2018-12-02T07:25:25.294Z,6.99
2018-12-02T07:26:25.274Z,6.94
2018-12-02T07:27:25.259Z,7.04
2018-12-02T07:28:25.267Z,7.08
2018-12-02T07:29:25.237Z,7.05
2018-12-02T07:30:25.227Z,7.07
2018-12-02T07:31:25.212Z,7.09
2018-12-02T07:32:25.198Z,7.04
2018-12-02T07:33:25.204Z,7.00
2018-12-02T07:34:25.179Z,7.12
2018-12-02T07:35:25.169Z,7.12
2018-12-02T07:36:25.157Z,6.96
2018-12-02T07:37:25.147Z,7.05
2018-12-02T07:38:25.149Z,7.07
2018-12-02T07:39:25.126Z,6.97
2018-12-02T07:40:25.115Z,7.09
2018-12-02T07:41:25.100Z,7.11
2018-12-02T07:42:25.088Z,7.04
2018-12-02T07:43:25.089Z,6.99
2018-12-02T07:44:25.066Z,7.07
2018-12-02T07:45:25.058Z,6.97
2018-12-02T07:46:25.044Z,7.00
2018-12-02T07:47:25.027Z,6.96
2018-12-02T07:48:25.032Z,6.94
2018-12-02T07:49:25.009Z,7.04
2018-12-02T07:50:25.003Z,7.04
2018-12-02T07:51:24.988Z,7.14
2018-12-02T07:52:25.007Z,7.16
2018-12-02T07:53:24.976Z,7.04
2018-12-02T07:54:24.952Z,7.14
2018-12-02T07:55:24.942Z,7.09
2018-12-02T07:56:24.927Z,7.09
2018-12-02T07:57:24.919Z,7.04
2018-12-02T07:58:24.919Z,7.04
2018-12-02T07:59:24.897Z,6.99
2018-12-02T08:00:24.885Z,7.04
2018-12-02T08:01:24.874Z,7.07
2018-12-02T08:02:24.866Z,7.00
2018-12-02T08:03:24.863Z,6.96
2018-12-02T08:04:24.835Z,6.97
2018-12-02T08:05:24.824Z,7.01
2018-12-02T08:06:24.813Z,7.00
2018-12-02T08:07:24.804Z,6.94
2018-12-02T08:08:24.804Z,7.00
2018-12-02T08:09:24.779Z,6.96
2018-12-02T08:10:24.770Z,6.93
2018-12-02T08:11:24.759Z,6.97
2018-12-02T08:12:24.746Z,6.94
2018-12-02T08:13:24.754Z,6.97
2018-12-02T08:14:24.724Z,6.94
2018-12-02T08:15:24.713Z,6.86
2018-12-02T08:16:24.700Z,6.89
2018-12-02T08:17:24.702Z,6.93
2018-12-02T08:18:24.690Z,6.81
2018-12-02T08:19:24.666Z,6.81
2018-12-02T08:20:24.654Z,6.82
2018-12-02T08:21:24.644Z,6.81
2018-12-02T08:22:24.628Z,6.87
2018-12-02T08:23:24.636Z,6.83
2018-12-02T08:24:24.615Z,6.83
2018-12-02T08:25:24.598Z,6.86
2018-12-02T08:26:24.586Z,6.91
2018-12-02T08:27:24.575Z,6.99
2018-12-02T08:28:24.576Z,7.09
2018-12-02T08:29:24.569Z,7.16
2018-12-02T08:30:24.549Z,7.27
2018-12-02T08:31:24.531Z,7.27
2018-12-02T08:32:24.519Z,7.27
2018-12-02T08:33:24.525Z,7.29
2018-12-02T08:34:24.495Z,7.42
2018-12-02T08:35:24.485Z,7.32
2018-12-02T08:36:24.474Z,7.23
2018-12-02T08:37:24.467Z,7.29
2018-12-02T08:38:24.463Z,7.27
2018-12-02T08:39:24.445Z,7.15
2018-12-02T08:40:24.428Z,7.23
2018-12-02T08:41:24.417Z,7.19
2018-12-02T08:42:24.405Z,7.21
2018-12-02T08:43:24.408Z,7.21
2018-12-02T08:44:24.382Z,7.26
2018-12-02T08:45:24.371Z,7.30
2018-12-02T08:46:24.360Z,7.23
2018-12-02T08:47:24.349Z,7.21
2018-12-02T08:48:24.371Z,7.27
2018-12-02T08:49:24.328Z,7.24
2018-12-02T08:50:24.315Z,7.27
2018-12-02T08:51:24.313Z,7.29
2018-12-02T08:52:24.292Z,7.32
2018-12-02T08:53:24.281Z,7.32
2018-12-02T08:54:24.280Z,7.26
2018-12-02T08:55:24.259Z,7.29
2018-12-02T08:56:24.247Z,7.23
2018-12-02T08:57:24.237Z,7.36
2018-12-02T08:58:24.303Z,7.26
2018-12-02T08:59:24.230Z,7.29
2018-12-02T09:00:24.206Z,7.33
2018-12-02T09:01:24.191Z,7.33
2018-12-02T09:02:24.183Z,7.42
2018-12-02T09:03:24.174Z,7.33
2018-12-02T09:04:24.174Z,7.41
2018-12-02T09:05:24.146Z,7.39
2018-12-02T09:06:24.140Z,7.50
2018-12-02T09:07:24.123Z,7.51
2018-12-02T09:08:24.114Z,7.54
2018-12-02T09:09:24.113Z,7.60
2018-12-02T09:10:24.091Z,7.60
2018-12-02T09:11:24.083Z,7.66
2018-12-02T09:12:24.067Z,7.60
2018-12-02T09:13:24.051Z,7.58
2018-12-02T09:14:24.057Z,7.57
2018-12-02T09:15:24.037Z,7.57
2018-12-02T09:16:24.018Z,7.54
2018-12-02T09:17:24.006Z,7.55
2018-12-02T09:18:23.995Z,7.60
2018-12-02T09:19:24.000Z,7.50
2018-12-02T09:20:23.973Z,7.70
2018-12-02T09:21:23.961Z,7.73
2018-12-02T09:22:23.947Z,7.74
2018-12-02T09:23:23.949Z,7.71
2018-12-02T09:24:23.944Z,7.76
2018-12-02T09:25:23.917Z,7.76
2018-12-02T09:26:23.905Z,7.70
2018-12-02T09:27:23.894Z,7.76
2018-12-02T09:28:23.884Z,7.77
2018-12-02T09:29:23.887Z,7.84
2018-12-02T09:30:23.861Z,7.91
2018-12-02T09:31:23.856Z,7.92
2018-12-02T09:32:23.841Z,7.92
2018-12-02T09:33:23.822Z,7.88
2018-12-02T09:34:23.836Z,7.89
2018-12-02T09:35:23.821Z,7.86
2018-12-02T09:36:23.792Z,7.84
2018-12-02T09:37:24.741Z,7.88
2018-12-02T09:38:23.770Z,7.82
2018-12-02T09:39:23.772Z,7.92
2018-12-02T09:40:23.748Z,7.88
2018-12-02T09:41:23.736Z,7.91
2018-12-02T09:42:23.727Z,7.91
2018-12-02T09:43:23.713Z,8.03
2018-12-02T09:44:23.716Z,8.12
2018-12-02T09:45:23.691Z,8.04
2018-12-02T09:46:23.681Z,8.07
2018-12-02T09:47:23.667Z,8.20
2018-12-02T09:48:23.657Z,8.18
2018-12-02T09:49:23.666Z,8.10
2018-12-02T09:50:23.638Z,8.14
2018-12-02T09:51:23.624Z,8.12
2018-12-02T09:52:23.611Z,8.14
2018-12-02T09:53:23.601Z,8.20
2018-12-02T09:54:23.607Z,8.27
2018-12-02T09:55:23.578Z,8.25
2018-12-02T09:56:23.574Z,8.32
2018-12-02T09:57:23.555Z,8.28
2018-12-02T09:58:23.544Z,8.34
2018-12-02T09:59:23.547Z,8.42
2018-12-02T10:00:23.522Z,8.49
2018-12-02T10:01:23.510Z,8.45
2018-12-02T10:02:23.499Z,8.50
2018-12-02T10:03:23.488Z,8.54
2018-12-02T10:04:23.490Z,8.50
2018-12-02T10:05:23.466Z,8.52
2018-12-02T10:06:23.459Z,8.54
2018-12-02T10:07:23.444Z,8.60
2018-12-02T10:08:23.433Z,8.47
2018-12-02T10:09:23.437Z,8.52
2018-12-02T10:10:23.413Z,8.58
2018-12-02T10:11:23.397Z,8.58
2018-12-02T10:12:23.386Z,8.57
2018-12-02T10:13:23.376Z,8.52
2018-12-02T10:14:23.375Z,8.50
2018-12-02T10:15:23.348Z,8.54
2018-12-02T10:16:23.337Z,8.52
2018-12-02T10:17:23.326Z,8.52
2018-12-02T10:18:23.317Z,8.49
2018-12-02T10:19:23.326Z,8.43
2018-12-02T10:20:23.293Z,8.43
2018-12-02T10:21:23.281Z,8.54
2018-12-02T10:22:23.270Z,8.54
2018-12-02T10:23:23.259Z,8.52
2018-12-02T10:24:23.267Z,8.47
2018-12-02T10:25:23.242Z,8.55
2018-12-02T10:26:23.224Z,8.54
2018-12-02T10:27:23.223Z,8.50
2018-12-02T10:28:23.205Z,8.45
2018-12-02T10:29:23.206Z,8.52
2018-12-02T10:30:23.178Z,8.50
2018-12-02T10:31:23.168Z,8.49
2018-12-02T10:32:23.156Z,8.64
2018-12-02T10:33:23.145Z,8.57
2018-12-02T10:34:23.146Z,8.67
2018-12-02T10:35:23.122Z,8.75
2018-12-02T10:36:23.112Z,8.61
2018-12-02T10:37:23.101Z,8.67
2018-12-02T10:38:23.089Z,8.65
2018-12-02T10:39:23.102Z,8.64
2018-12-02T10:40:23.070Z,8.61
2018-12-02T10:41:23.055Z,8.61
2018-12-02T10:42:23.048Z,8.68
2018-12-02T10:43:23.031Z,8.75
2018-12-02T10:44:23.036Z,8.78
2018-12-02T10:45:23.009Z,8.71
2018-12-02T10:46:23.003Z,8.82
2018-12-02T10:47:22.987Z,8.73
2018-12-02T10:48:22.975Z,8.73
2018-12-02T10:49:22.976Z,8.73
2018-12-02T10:50:22.953Z,8.78
2018-12-02T10:51:22.964Z,8.71
2018-12-02T10:52:22.931Z,8.73
2018-12-02T10:53:22.922Z,8.68
2018-12-02T10:54:22.945Z,8.75
2018-12-02T10:55:22.897Z,8.78
2018-12-02T10:56:22.890Z,8.75
2018-12-02T10:57:22.875Z,8.71
2018-12-02T10:58:22.874Z,8.76
2018-12-02T10:59:22.855Z,8.76
2018-12-02T11:00:22.853Z,8.73
2018-12-02T11:01:22.831Z,8.88
2018-12-02T11:02:22.862Z,8.71
2018-12-02T11:03:22.802Z,8.75
2018-12-02T11:04:22.792Z,8.76
2018-12-02T11:05:22.793Z,8.73
2018-12-02T11:06:22.770Z,8.75
2018-12-02T11:07:22.761Z,8.80
2018-12-02T11:08:22.749Z,8.93
2018-12-02T11:09:22.736Z,8.96
2018-12-02T11:10:22.740Z,8.91
2018-12-02T11:11:22.716Z,8.91
2018-12-02T11:12:22.705Z,8.93
2018-12-02T11:13:22.689Z,8.89
2018-12-02T11:14:22.681Z,8.91
2018-12-02T11:15:22.683Z,9.00
2018-12-02T11:16:22.656Z,8.96
2018-12-02T11:17:22.643Z,8.96
2018-12-02T11:18:22.634Z,9.00
2018-12-02T11:19:22.626Z,9.00
2018-12-02T11:20:22.624Z,8.98
2018-12-02T11:21:22.599Z,8.96
2018-12-02T11:22:22.589Z,8.98
2018-12-02T11:23:22.580Z,8.97
2018-12-02T11:24:22.565Z,9.03
2018-12-02T11:25:22.570Z,9.03
2018-12-02T11:26:22.547Z,9.01
2018-12-02T11:27:22.532Z,9.12
2018-12-02T11:28:22.521Z,9.04
2018-12-02T11:29:22.510Z,9.17
2018-12-02T11:30:22.515Z,9.10
2018-12-02T11:31:22.487Z,9.16
2018-12-02T11:32:22.476Z,9.13
2018-12-02T11:33:22.463Z,9.16
2018-12-02T11:34:22.454Z,9.03
2018-12-02T11:35:22.454Z,9.17
2018-12-02T11:36:22.430Z,9.23
2018-12-02T11:37:22.418Z,9.22
2018-12-02T11:38:22.409Z,9.24
2018-12-02T11:39:22.396Z,9.31
2018-12-02T11:40:22.404Z,9.17
2018-12-02T11:41:22.371Z,9.22
2018-12-02T11:42:22.359Z,9.17
2018-12-02T11:43:22.348Z,9.20
2018-12-02T11:44:22.337Z,9.15
2018-12-02T11:45:22.346Z,9.10
2018-12-02T11:46:22.317Z,9.15
2018-12-02T11:47:22.303Z,9.13
2018-12-02T11:48:22.290Z,9.10
2018-12-02T11:49:22.285Z,9.04
2018-12-02T11:50:22.285Z,9.12
2018-12-02T11:51:22.257Z,9.08
2018-12-02T11:52:22.261Z,9.10
2018-12-02T11:53:22.242Z,9.13
2018-12-02T11:54:22.223Z,9.12
2018-12-02T11:55:22.225Z,9.08
2018-12-02T11:56:22.206Z,9.15
2018-12-02T11:57:26.511Z,9.06
2018-12-02T11:58:22.178Z,9.01
2018-12-02T11:59:22.166Z,9.12
2018-12-02T12:00:22.171Z,9.08
2018-12-02T12:01:22.146Z,9.08
2018-12-02T12:02:22.135Z,9.12
2018-12-02T12:03:22.117Z,9.04
2018-12-02T12:04:22.110Z,9.13
2018-12-02T12:05:22.113Z,9.10
2018-12-02T12:06:22.089Z,9.19
2018-12-02T12:07:22.076Z,9.26
2018-12-02T12:08:22.066Z,9.15
2018-12-02T12:09:22.054Z,9.23
2018-12-02T12:10:22.055Z,9.23
2018-12-02T12:11:22.032Z,9.22
2018-12-02T12:12:22.019Z,9.31
2018-12-02T12:13:22.008Z,9.32
2018-12-02T12:14:21.990Z,9.32
2018-12-02T12:15:22.100Z,9.31
2018-12-02T12:16:21.979Z,9.38
2018-12-02T12:17:21.970Z,9.38
2018-12-02T12:18:21.970Z,9.34
2018-12-02T12:19:21.942Z,9.27
2018-12-02T12:20:21.950Z,9.30
2018-12-02T12:21:21.922Z,9.34
2018-12-02T12:22:21.908Z,9.32
2018-12-02T12:23:21.899Z,9.35
2018-12-02T12:24:21.889Z,9.40
2018-12-02T12:25:21.885Z,9.44
2018-12-02T12:26:21.868Z,9.42
2018-12-02T12:27:21.877Z,9.42
2018-12-02T12:28:21.852Z,9.44
2018-12-02T12:29:21.826Z,9.42
2018-12-02T12:30:22.045Z,9.44
2018-12-02T12:31:21.809Z,9.41
2018-12-02T12:32:21.901Z,9.50
2018-12-02T12:33:21.783Z,9.52
2018-12-02T12:34:21.775Z,9.50
2018-12-02T12:35:21.773Z,9.53
2018-12-02T12:36:21.749Z,9.48
2018-12-02T12:37:21.734Z,9.53
2018-12-02T12:38:22.401Z,9.49
2018-12-02T12:39:21.717Z,9.55
2018-12-02T12:40:21.716Z,9.50
2018-12-02T12:41:21.698Z,9.52
2018-12-02T12:42:21.681Z,9.55
2018-12-02T12:43:21.671Z,9.59
2018-12-02T12:44:21.660Z,9.52
2018-12-02T12:45:21.663Z,9.45
2018-12-02T12:46:21.632Z,9.59
2018-12-02T12:47:21.621Z,9.53
2018-12-02T12:48:21.611Z,9.49
2018-12-02T12:49:21.612Z,9.56
2018-12-02T12:50:21.653Z,9.49
2018-12-02T12:51:21.576Z,9.55
2018-12-02T12:52:21.567Z,9.55
2018-12-02T12:53:21.561Z,9.55
2018-12-02T12:54:21.551Z,9.55
2018-12-02T12:55:21.546Z,9.50
2018-12-02T12:56:21.522Z,9.56
2018-12-02T12:57:21.508Z,9.53
2018-12-02T12:58:21.499Z,9.45
2018-12-02T12:59:21.486Z,9.44
2018-12-02T13:00:21.487Z,9.55
2018-12-02T13:01:21.479Z,9.48
2018-12-02T13:02:21.454Z,9.48
2018-12-02T13:03:21.440Z,9.44
2018-12-02T13:04:21.430Z,9.40
2018-12-02T13:05:21.450Z,9.40
2018-12-02T13:06:21.548Z,9.45
2018-12-02T13:07:21.395Z,9.50
2018-12-02T13:08:21.384Z,9.49
2018-12-02T13:09:21.382Z,9.55
2018-12-02T13:10:21.361Z,9.45
2018-12-02T13:11:21.362Z,9.53
2018-12-02T13:12:21.340Z,9.49
2018-12-02T13:13:21.987Z,9.50
2018-12-02T13:14:21.316Z,9.49
2018-12-02T13:15:21.307Z,9.55
2018-12-02T13:16:21.315Z,9.65
2018-12-02T13:17:21.283Z,9.53
2018-12-02T13:18:21.274Z,9.50
2018-12-02T13:19:21.260Z,9.53
2018-12-02T13:20:21.251Z,9.49
2018-12-02T13:21:21.253Z,9.50
2018-12-02T13:22:21.223Z,9.52
2018-12-02T13:23:21.220Z,9.55
2018-12-02T13:24:21.199Z,9.56
2018-12-02T13:25:21.189Z,9.49
2018-12-02T13:26:21.195Z,9.58
2018-12-02T13:27:21.165Z,9.59
2018-12-02T13:28:21.158Z,9.65
2018-12-02T13:29:21.143Z,9.60
2018-12-02T13:30:21.131Z,9.55
2018-12-02T13:31:21.133Z,9.50
2018-12-02T13:32:21.109Z,9.59
2018-12-02T13:33:21.101Z,9.53
2018-12-02T13:34:21.087Z,9.49
2018-12-02T13:35:21.092Z,9.53
2018-12-02T13:36:21.084Z,9.42
2018-12-02T13:37:21.053Z,9.49
2018-12-02T13:38:21.043Z,9.45
2018-12-02T13:39:21.031Z,9.41
2018-12-02T13:40:21.019Z,9.53
2018-12-02T13:41:21.019Z,9.55
2018-12-02T13:42:21.001Z,9.50
2018-12-02T13:43:20.988Z,9.44
2018-12-02T13:44:20.975Z,9.38
2018-12-02T13:45:20.963Z,9.38
2018-12-02T13:46:20.964Z,9.26
2018-12-02T13:47:20.941Z,9.32
2018-12-02T13:48:20.930Z,9.34
2018-12-02T13:49:20.917Z,9.35
2018-12-02T13:50:20.907Z,9.41
2018-12-02T13:51:20.908Z,9.37
2018-12-02T13:52:20.884Z,9.40
2018-12-02T13:53:20.872Z,9.44
2018-12-02T13:54:20.865Z,9.42
2018-12-02T13:55:20.882Z,9.44
2018-12-02T13:56:23.069Z,9.49
2018-12-02T13:57:20.833Z,9.55
2018-12-02T13:58:20.815Z,9.41
2018-12-02T13:59:20.806Z,9.58
2018-12-02T14:00:20.795Z,9.52
2018-12-02T14:01:20.798Z,9.59
2018-12-02T14:02:20.771Z,9.58
2018-12-02T14:03:20.759Z,9.65
2018-12-02T14:04:20.748Z,9.65
2018-12-02T14:05:20.737Z,9.67
2018-12-02T14:06:20.821Z,9.73
2018-12-02T14:07:20.716Z,9.77
2018-12-02T14:08:20.707Z,9.78
2018-12-02T14:09:20.692Z,9.77
2018-12-02T14:10:20.685Z,9.91
2018-12-02T14:11:20.681Z,9.91
2018-12-02T14:12:20.658Z,9.88
2018-12-02T14:13:20.650Z,9.85
2018-12-02T14:14:20.635Z,9.93
2018-12-02T14:15:20.625Z,9.86
2018-12-02T14:16:20.629Z,9.86
2018-12-02T14:17:20.598Z,9.91
2018-12-02T14:18:20.595Z,9.91
2018-12-02T14:19:20.575Z,9.95
2018-12-02T14:20:20.568Z,9.99
2018-12-02T14:21:20.569Z,9.91
2018-12-02T14:22:20.550Z,9.95
2018-12-02T14:23:20.536Z,9.96
2018-12-02T14:24:20.524Z,9.86
2018-12-02T14:25:20.511Z,9.93
2018-12-02T14:26:20.517Z,9.98
2018-12-02T14:27:20.489Z,10.07
2018-12-02T14:28:20.478Z,10.10
2018-12-02T14:29:20.463Z,10.06
2018-12-02T14:30:20.455Z,10.07
2018-12-02T14:31:20.459Z,10.14
2018-12-02T14:32:20.432Z,10.09
2018-12-02T14:33:20.422Z,10.14
2018-12-02T14:34:20.410Z,10.18
2018-12-02T14:35:20.398Z,10.13
2018-12-02T14:36:20.402Z,10.14
2018-12-02T14:37:20.379Z,10.13
2018-12-02T14:38:20.366Z,10.06
2018-12-02T14:39:20.351Z,10.16
2018-12-02T14:40:20.340Z,10.17
2018-12-02T14:41:20.345Z,10.14
2018-12-02T14:42:20.324Z,10.06
2018-12-02T14:43:20.304Z,10.13
2018-12-02T14:44:20.293Z,10.09
2018-12-02T14:45:20.282Z,10.04
2018-12-02T14:46:20.287Z,10.01
2018-12-02T14:47:20.263Z,10.09
2018-12-02T14:48:20.248Z,9.98
2018-12-02T14:49:20.250Z,10.04
2018-12-02T14:50:20.258Z,10.06
2018-12-02T14:51:20.231Z,10.02
2018-12-02T14:52:20.213Z,10.10
2018-12-02T14:53:20.196Z,10.02
2018-12-02T14:54:20.185Z,10.01
2018-12-02T14:55:20.179Z,10.06
2018-12-02T14:56:20.174Z,10.06
2018-12-02T14:57:20.152Z,10.06
2018-12-02T14:58:20.140Z,10.13
2018-12-02T14:59:20.128Z,10.04
2018-12-02T15:00:20.117Z,10.11
2018-12-02T15:01:20.120Z,10.20
2018-12-02T15:02:20.094Z,10.18
2018-12-02T15:03:20.088Z,10.22
2018-12-02T15:04:20.071Z,10.20
2018-12-02T15:05:20.551Z,10.16
2018-12-02T15:06:20.079Z,10.13
2018-12-02T15:07:20.039Z,10.10
2018-12-02T15:08:20.027Z,10.13
2018-12-02T15:09:20.011Z,10.07
2018-12-02T15:10:20.000Z,10.09
2018-12-02T15:11:19.989Z,10.09
2018-12-02T15:12:19.995Z,10.07
2018-12-02T15:13:19.967Z,10.11
2018-12-02T15:14:19.955Z,10.02
2018-12-02T15:15:19.949Z,10.06
2018-12-02T15:16:19.938Z,10.01
2018-12-02T15:17:19.939Z,9.99
2018-12-02T15:18:19.913Z,10.13
2018-12-02T15:19:19.902Z,9.98
2018-12-02T15:20:19.894Z,10.01
2018-12-02T15:21:19.880Z,10.02
2018-12-02T15:22:19.893Z,10.04
2018-12-02T15:23:19.863Z,10.16
2018-12-02T15:24:19.853Z,10.17
2018-12-02T15:25:19.835Z,10.13
2018-12-02T15:26:19.825Z,10.14
2018-12-02T15:27:19.828Z,10.18
2018-12-02T15:28:19.797Z,10.11
2018-12-02T15:29:19.786Z,10.13
2018-12-02T15:30:19.778Z,10.10
2018-12-02T15:31:19.767Z,10.11
2018-12-02T15:32:19.768Z,10.01
2018-12-02T15:33:19.744Z,9.99
2018-12-02T15:34:19.735Z,10.13
2018-12-02T15:35:19.733Z,10.04
2018-12-02T15:36:19.712Z,10.02
2018-12-02T15:37:19.718Z,10.07
2018-12-02T15:38:19.689Z,10.14
2018-12-02T15:39:19.680Z,10.11
2018-12-02T15:40:19.667Z,10.10
2018-12-02T15:41:19.650Z,10.04
2018-12-02T15:42:19.664Z,10.13
2018-12-02T15:43:19.629Z,10.07
2018-12-02T15:44:19.619Z,10.09
2018-12-02T15:45:19.607Z,9.92
2018-12-02T15:46:19.595Z,10.01
2018-12-02T15:47:19.602Z,10.02
2018-12-02T15:48:19.572Z,10.01
2018-12-02T15:49:19.562Z,9.85
2018-12-02T15:50:19.558Z,9.93
2018-12-02T15:51:19.540Z,9.89
2018-12-02T15:52:19.544Z,9.93
2018-12-02T15:53:19.516Z,9.93
2018-12-02T15:54:19.504Z,10.06
2018-12-02T15:55:19.494Z,10.02
2018-12-02T15:56:19.483Z,9.91
2018-12-02T15:57:19.534Z,9.89
2018-12-02T15:58:19.459Z,9.86
2018-12-02T15:59:19.451Z,9.86
2018-12-02T16:00:19.437Z,9.92
2018-12-02T16:01:19.431Z,9.88
2018-12-02T16:02:19.434Z,9.91
2018-12-02T16:03:19.443Z,9.96
2018-12-02T16:04:19.393Z,9.91
2018-12-02T16:05:19.380Z,9.88
2018-12-02T16:06:19.369Z,9.89
2018-12-02T16:07:19.375Z,9.93
2018-12-02T16:08:19.351Z,9.92
2018-12-02T16:09:19.355Z,9.92
2018-12-02T16:10:19.332Z,9.86
2018-12-02T16:11:19.316Z,9.92
2018-12-02T16:12:19.317Z,9.89
2018-12-02T16:13:19.290Z,9.86
2018-12-02T16:14:19.279Z,9.86
2018-12-02T16:15:19.270Z,9.93
2018-12-02T16:16:19.256Z,9.95
2018-12-02T16:17:19.257Z,9.86
2018-12-02T16:18:19.243Z,9.91
2018-12-02T16:19:19.227Z,9.91
2018-12-02T16:20:19.216Z,9.91
2018-12-02T16:21:19.199Z,9.89
2018-12-02T16:22:19.208Z,9.91
2018-12-02T16:23:19.181Z,9.93
2018-12-02T16:24:19.166Z,9.95
2018-12-02T16:25:19.157Z,9.91
2018-12-02T16:26:19.187Z,9.93
2018-12-02T16:27:19.147Z,9.88
2018-12-02T16:28:19.120Z,9.93
2018-12-02T16:29:19.109Z,9.86
2018-12-02T16:30:19.101Z,9.99
2018-12-02T16:31:19.094Z,9.85
2018-12-02T16:32:19.090Z,9.92
2018-12-02T16:33:19.067Z,9.96
2018-12-02T16:34:19.054Z,9.93
2018-12-02T16:35:19.041Z,10.04
2018-12-02T16:36:19.035Z,10.10
2018-12-02T16:37:19.032Z,10.14
2018-12-02T16:38:19.008Z,10.10
2018-12-02T16:39:18.998Z,10.11
2018-12-02T16:40:18.992Z,10.16
2018-12-02T16:41:18.979Z,10.13
2018-12-02T16:42:18.978Z,10.11
2018-12-02T16:43:18.957Z,10.16
2018-12-02T16:44:18.940Z,10.18
2018-12-02T16:45:18.930Z,10.11
2018-12-02T16:46:18.919Z,10.11
2018-12-02T16:47:18.921Z,10.14
2018-12-02T16:48:18.896Z,10.11
2018-12-02T16:49:18.886Z,10.11
2018-12-02T16:50:18.874Z,10.14
2018-12-02T16:51:18.864Z,10.11
2018-12-02T16:52:18.872Z,10.18
2018-12-02T16:53:18.840Z,10.25
2018-12-02T16:54:18.829Z,10.17
2018-12-02T16:55:18.817Z,10.26
2018-12-02T16:56:18.812Z,10.31
2018-12-02T16:57:18.812Z,10.35
2018-12-02T16:58:18.784Z,10.39
2018-12-02T16:59:18.772Z,10.35
2018-12-02T17:00:18.760Z,10.31
2018-12-02T17:01:18.750Z,10.32
2018-12-02T17:02:18.758Z,10.36
2018-12-02T17:03:18.728Z,10.39
2018-12-02T17:04:18.715Z,10.38
2018-12-02T17:05:18.711Z,10.43
2018-12-02T17:06:18.696Z,10.46
2018-12-02T17:07:18.696Z,10.36
2018-12-02T17:08:18.676Z,10.52
2018-12-02T17:09:18.659Z,10.46
2018-12-02T17:10:18.648Z,10.44
2018-12-02T17:11:18.638Z,10.51
2018-12-02T17:12:18.653Z,10.47
2018-12-02T17:13:18.614Z,10.51
2018-12-02T17:14:18.603Z,10.47
2018-12-02T17:15:18.593Z,10.46
2018-12-02T17:16:18.582Z,10.44
2018-12-02T17:17:18.569Z,10.44
2018-12-02T17:18:18.569Z,10.47
2018-12-02T17:19:18.546Z,10.46
2018-12-02T17:20:18.535Z,10.49
2018-12-02T17:21:18.529Z,10.46
2018-12-02T17:22:18.513Z,10.43
2018-12-02T17:23:18.517Z,10.32
2018-12-02T17:24:18.490Z,10.46
2018-12-02T17:25:18.486Z,10.38
2018-12-02T17:26:18.469Z,10.39
2018-12-02T17:27:18.456Z,10.36
2018-12-02T17:28:18.460Z,10.31
2018-12-02T17:29:18.433Z,10.28
2018-12-02T17:30:18.422Z,10.38
2018-12-02T17:31:18.458Z,10.26
2018-12-02T17:32:18.408Z,10.35
2018-12-02T17:33:18.407Z,10.28
2018-12-02T17:34:18.394Z,10.25
2018-12-02T17:35:18.371Z,10.28
2018-12-02T17:36:18.359Z,10.25
2018-12-02T17:37:20.062Z,10.18
2018-12-02T17:38:18.349Z,10.13
2018-12-02T17:39:18.324Z,10.20
2018-12-02T17:40:18.313Z,10.25
2018-12-02T17:41:18.302Z,10.13
2018-12-02T17:42:18.290Z,10.22
2018-12-02T17:43:18.929Z,10.24
2018-12-02T17:44:18.269Z,10.26
2018-12-02T17:45:18.256Z,10.26
2018-12-02T17:46:18.246Z,10.29
2018-12-02T17:47:18.230Z,10.20
2018-12-02T17:48:18.238Z,10.43
2018-12-02T17:49:18.212Z,10.51
2018-12-02T17:50:18.202Z,10.51
2018-12-02T17:51:18.191Z,10.51
2018-12-02T17:52:18.179Z,10.51
2018-12-02T17:53:18.179Z,10.55
2018-12-02T17:54:18.155Z,10.57
2018-12-02T17:55:18.146Z,10.57
2018-12-02T17:56:18.133Z,10.75
2018-12-02T17:57:18.124Z,10.72
2018-12-02T17:58:18.108Z,10.69
2018-12-02T17:59:18.102Z,10.78
2018-12-02T18:00:18.088Z,10.81
2018-12-02T18:01:18.077Z,10.69
2018-12-02T18:02:18.065Z,10.83
2018-12-02T18:03:18.070Z,10.76
2018-12-02T18:04:18.045Z,10.84
2018-12-02T18:05:18.032Z,10.70
2018-12-02T18:06:18.021Z,10.73
2018-12-02T18:07:18.009Z,10.78
2018-12-02T18:08:18.006Z,10.75
2018-12-02T18:09:18.000Z,10.90
2018-12-02T18:10:17.978Z,11.02
2018-12-02T18:11:17.966Z,10.98
2018-12-02T18:12:17.954Z,11.11
2018-12-02T18:13:17.973Z,11.02
2018-12-02T18:14:17.935Z,11.09
2018-12-02T18:15:17.920Z,11.17
2018-12-02T18:16:17.910Z,11.26
2018-12-02T18:17:17.896Z,11.21
2018-12-02T18:18:17.905Z,11.28
2018-12-02T18:19:18.651Z,11.23
2018-12-02T18:20:17.866Z,11.17
2018-12-02T18:21:17.853Z,11.27
2018-12-02T18:22:17.840Z,11.30